Time;durP1;ratioP1;P1;durP2;ratioP2;P2;SDS_P1;SDS_P2;PMS_P1;PMS_P2;Temp;Humidity;BMP_temperature;BMP_pressure;BME280_temperature;BME280_humidity;BME280_pressure;Samples;Min_cycle;Max_cycle;Signal;HPM_P1;HPM_P2
2022/09/14 00:00:10;;;;;;;6.40;3.10;;;17.30;99.90;;;;;;2615185;54;20133;-72
2022/09/14 00:06:03;;;;;;;6.43;3.13;;;17.30;99.90;;;;;;2614412;54;20451;-72
2022/09/14 00:11:51;;;;;;;6.37;2.70;;;17.30;99.90;;;;;;2614447;54;20912;-72
2022/09/14 00:17:39;;;;;;;6.23;2.77;;;17.30;99.90;;;;;;2614902;54;21216;-73
2022/09/14 00:23:27;;;;;;;9.10;2.63;;;17.30;99.90;;;;;;2613875;54;20192;-73
2022/09/14 00:29:15;;;;;;;5.73;2.40;;;17.30;99.90;;;;;;2614804;54;20194;-72
2022/09/14 00:35:03;;;;;;;6.27;2.77;;;17.20;99.90;;;;;;2613306;54;20200;-73
2022/09/14 00:41:01;;;;;;;3.67;2.30;;;17.20;99.90;;;;;;2615152;54;20397;-72
2022/09/14 00:44:04;;;;;;;4.93;2.50;;;17.20;99.90;;;;;;2613812;54;20429;-74
2022/09/14 00:53:14;;;;;;;10.20;3.30;;;17.30;99.90;;;;;;2614016;54;20389;-73
2022/09/14 01:05:17;;;;;;;7.38;2.72;;;17.20;99.90;;;;;;2613391;54;20387;-73
2022/09/14 01:30:44;;;;;;;8.37;2.80;;;16.90;99.90;;;;;;2614196;54;20393;-72
2022/09/14 01:36:35;;;;;;;6.30;2.97;;;16.50;99.90;;;;;;2615115;54;20398;-72
2022/09/14 01:42:26;;;;;;;9.17;2.83;;;16.30;99.90;;;;;;2615106;54;20391;-72
2022/09/14 01:48:51;;;;;;;7.10;3.17;;;16.10;99.90;;;;;;2613718;54;20479;-71
2022/09/14 02:10:39;;;;;;;6.43;5.13;;;15.70;99.90;;;;;;2614704;54;20356;-73
2022/09/14 02:16:27;;;;;;;9.10;3.30;;;15.70;99.90;;;;;;2615535;54;20387;-72
2022/09/14 02:22:15;;;;;;;12.52;4.03;;;15.70;99.90;;;;;;2613787;54;20402;-72
2022/09/14 02:28:03;;;;;;;7.83;3.63;;;15.80;99.90;;;;;;2613896;54;20138;-72
2022/09/14 02:40:25;;;;;;;10.77;4.50;;;15.70;99.90;;;;;;2614053;54;20134;-73
2022/09/14 02:58:58;;;;;;;8.97;4.00;;;15.70;99.90;;;;;;2614482;54;20144;-72
2022/09/14 03:04:46;;;;;;;5.90;3.22;;;15.80;99.90;;;;;;2614381;54;20138;-74
2022/09/14 03:10:33;;;;;;;7.33;3.20;;;15.70;99.90;;;;;;2615394;54;20130;-73
2022/09/14 03:16:21;;;;;;;6.38;2.75;;;15.80;99.90;;;;;;2614468;54;20148;-72
2022/09/14 03:22:09;;;;;;;8.53;3.07;;;15.70;99.90;;;;;;2615272;54;20155;-72
2022/09/14 03:27:58;;;;;;;10.80;3.40;;;15.50;99.90;;;;;;2615649;39;20532;-73
2022/09/14 03:33:46;;;;;;;8.17;3.73;;;15.40;99.90;;;;;;2614253;54;20398;-73
2022/09/14 03:39:34;;;;;;;8.27;3.57;;;15.40;99.90;;;;;;2613588;54;20435;-72
2022/09/14 03:45:22;;;;;;;5.30;3.77;;;15.50;99.90;;;;;;2614806;54;20135;-71
2022/09/14 03:54:41;;;;;;;5.30;3.60;;;15.50;99.90;;;;;;2615237;39;20728;-72
2022/09/14 04:00:29;;;;;;;8.53;3.50;;;15.40;99.90;;;;;;2615160;54;20583;-72
2022/09/14 04:06:17;;;;;;;7.47;3.67;;;15.40;99.90;;;;;;2613494;54;20137;-73
2022/09/14 04:12:06;;;;;;;6.77;4.47;;;15.40;99.90;;;;;;2614017;54;20138;-72
2022/09/14 04:17:53;;;;;;;7.17;4.40;;;15.40;99.90;;;;;;2612706;54;20411;-74
2022/09/14 04:23:41;;;;;;;6.97;4.23;;;15.30;99.90;;;;;;2614992;54;20157;-71
2022/09/14 04:29:29;;;;;;;7.03;3.70;;;15.40;99.90;;;;;;2614898;54;21968;-72
2022/09/14 04:35:17;;;;;;;7.03;3.63;;;15.40;99.90;;;;;;2614602;39;20647;-73
2022/09/14 04:47:23;;;;;;;6.47;5.13;;;15.40;99.90;;;;;;2614128;54;20465;-72
2022/09/14 04:50:08;;;;;;;7.80;4.30;;;15.40;99.90;;;;;;2613338;54;20424;-72
2022/09/14 04:52:34;;;;;;;6.73;5.03;;;15.50;99.90;;;;;;2614400;54;20825;-72
2022/09/14 04:58:21;;;;;;;8.80;4.67;;;15.40;99.90;;;;;;2615529;39;20505;-74
2022/09/14 05:04:10;;;;;;;7.80;4.82;;;15.30;99.90;;;;;;2616032;31;20710;-72
2022/09/14 05:10:01;;;;;;;8.70;4.40;;;15.40;99.90;;;;;;2615360;54;20411;-71
2022/09/14 05:15:49;;;;;;;8.73;4.63;;;15.30;99.90;;;;;;2614951;54;20123;-74
2022/09/14 05:21:37;;;;;;;9.15;4.65;;;15.30;99.90;;;;;;2614175;54;20378;-73
2022/09/14 05:27:25;;;;;;;9.17;4.67;;;15.30;99.90;;;;;;2615125;54;20395;-72
2022/09/14 05:33:12;;;;;;;5.20;3.77;;;15.30;99.90;;;;;;2615160;54;20122;-72
2022/09/14 05:39:00;;;;;;;7.30;3.30;;;15.10;99.90;;;;;;2614730;54;20142;-71
2022/09/14 05:44:47;;;;;;;5.40;4.00;;;15.10;99.90;;;;;;2615279;54;20678;-74
2022/09/14 05:54:41;;;;;;;9.73;8.50;;;15.10;99.90;;;;;;2615434;54;20992;-71
2022/09/14 06:00:30;;;;;;;27.10;24.20;;;14.90;99.90;;;;;;2612940;54;20387;-74
2022/09/14 06:06:19;;;;;;;28.87;26.00;;;14.70;99.90;;;;;;2613201;47;20857;-71
2022/09/14 06:12:06;;;;;;;17.48;15.70;;;14.70;99.90;;;;;;2613715;39;20812;-72
2022/09/14 06:17:54;;;;;;;15.23;11.43;;;14.60;99.90;;;;;;2612832;54;20154;-71
2022/09/14 06:23:43;;;;;;;7.70;6.00;;;14.50;99.90;;;;;;2613440;54;20655;-71
2022/09/14 06:29:33;;;;;;;11.83;5.00;;;14.50;99.90;;;;;;2614652;54;20384;-71
2022/09/14 06:35:21;;;;;;;15.20;4.47;;;14.50;99.90;;;;;;2613503;54;20395;-71
2022/09/14 06:41:11;;;;;;;7.38;4.80;;;14.40;99.90;;;;;;2614210;54;20126;-71
2022/09/14 06:46:59;;;;;;;10.50;5.43;;;14.40;99.90;;;;;;2614798;54;20684;-72
2022/09/14 06:50:08;;;;;;;9.50;5.63;;;14.50;99.90;;;;;;2613707;54;20276;-72
2022/09/14 06:52:37;;;;;;;6.00;4.90;;;14.40;99.90;;;;;;2614112;54;20329;-74
2022/09/14 06:58:24;;;;;;;10.50;4.30;;;14.40;99.90;;;;;;2611422;54;20371;-71
2022/09/14 07:04:13;;;;;;;9.85;5.50;;;14.30;99.90;;;;;;2614374;54;20134;-73
2022/09/14 07:10:00;;;;;;;10.43;4.80;;;14.30;99.90;;;;;;2609057;54;21032;-72
2022/09/14 07:15:49;;;;;;;14.93;6.10;;;14.30;99.90;;;;;;2613051;54;20140;-72
2022/09/14 07:21:37;;;;;;;11.00;5.13;;;14.40;99.90;;;;;;2614166;54;20398;-74
2022/09/14 07:27:24;;;;;;;7.37;4.20;;;14.30;99.90;;;;;;2614296;54;20384;-73
2022/09/14 07:33:12;;;;;;;7.17;4.87;;;14.20;99.90;;;;;;2614447;54;20130;-72
2022/09/14 07:39:00;;;;;;;10.23;4.65;;;14.10;99.90;;;;;;2611395;54;20134;-72
2022/09/14 07:44:48;;;;;;;8.80;4.63;;;14.10;99.90;;;;;;2614997;54;20385;-72
2022/09/14 07:54:36;;;;;;;8.10;4.70;;;14.00;99.90;;;;;;2615737;54;20411;-72
2022/09/14 08:00:24;;;;;;;5.80;4.67;;;13.90;99.90;;;;;;2615190;54;20234;-72
2022/09/14 08:06:14;;;;;;;15.33;4.83;;;14.00;99.90;;;;;;2615955;54;20419;-72
2022/09/14 08:12:03;;;;;;;9.87;5.20;;;14.00;99.90;;;;;;2616308;54;21242;-72
2022/09/14 08:17:51;;;;;;;9.80;7.00;;;14.10;99.90;;;;;;2615373;54;20468;-72
2022/09/14 08:23:39;;;;;;;8.43;4.30;;;14.10;99.90;;;;;;2615568;54;20130;-72
2022/09/14 08:29:27;;;;;;;10.27;5.10;;;14.00;99.90;;;;;;2615118;54;20376;-72
2022/09/14 08:35:14;;;;;;;7.80;4.90;;;14.20;99.90;;;;;;2615014;46;20262;-72
2022/09/14 08:47:43;;;;;;;7.87;5.70;;;14.30;99.90;;;;;;2615559;54;20923;-72
2022/09/14 09:10:18;;;;;;;5.20;4.70;;;14.40;99.90;;;;;;2612224;54;20971;-73
2022/09/14 09:16:09;;;;;;;12.50;6.20;;;14.40;99.90;;;;;;2613901;54;20423;-73
2022/09/14 09:21:56;;;;;;;9.53;6.23;;;14.40;99.90;;;;;;2613943;54;21094;-72
2022/09/14 09:27:44;;;;;;;6.83;5.50;;;14.40;99.90;;;;;;2612875;54;20915;-71
2022/09/14 09:33:32;;;;;;;11.47;5.80;;;14.50;99.90;;;;;;2614311;54;20134;-73
2022/09/14 09:39:19;;;;;;;12.20;7.13;;;14.50;99.90;;;;;;2612109;54;20243;-71
2022/09/14 09:45:07;;;;;;;11.87;7.90;;;14.50;99.90;;;;;;2616215;39;20767;-73
2022/09/14 09:51:00;;;;;;;9.43;7.10;;;14.20;99.90;;;;;;2615302;54;20472;-73
2022/09/14 09:56:56;;;;;;;8.83;5.23;;;14.40;99.90;;;;;;2615840;54;20458;-72
2022/09/14 10:02:43;;;;;;;13.40;5.97;;;14.60;99.90;;;;;;2615572;54;20938;-72
2022/09/14 10:08:33;;;;;;;9.40;6.00;;;14.50;99.90;;;;;;2616078;54;20230;-72
2022/09/14 10:14:33;;;;;;;7.97;5.90;;;14.50;99.90;;;;;;2615226;54;20379;-73
2022/09/14 10:20:24;;;;;;;8.23;6.67;;;14.50;99.90;;;;;;2615557;54;20151;-73
2022/09/14 10:26:11;;;;;;;9.00;6.70;;;14.50;99.90;;;;;;2614066;54;20399;-73
2022/09/14 10:32:06;;;;;;;8.80;6.50;;;14.60;99.90;;;;;;2614380;54;20138;-73
2022/09/14 11:33:57;;;;;;;2.42;2.00;;;14.20;99.90;;;;;;2614911;54;20382;-74
2022/09/14 11:39:53;;;;;;;3.85;1.90;;;14.20;99.90;;;;;;2614863;54;20422;-71
2022/09/14 11:45:46;;;;;;;3.30;2.00;;;14.30;99.90;;;;;;2614667;54;20387;-72
2022/09/14 11:55:26;;;;;;;5.10;2.73;;;14.50;99.90;;;;;;2614607;54;20394;-73
2022/09/14 11:57:52;;;;;;;3.50;2.67;;;14.30;99.90;;;;;;2614622;54;20415;-71
2022/09/14 12:10:20;;;;;;;6.20;2.33;;;14.50;99.90;;;;;;2614352;54;20363;-73
2022/09/14 12:16:08;;;;;;;5.37;3.00;;;14.50;99.90;;;;;;2613537;54;20414;-74
2022/09/14 12:28:47;;;;;;;4.50;2.60;;;14.50;99.90;;;;;;2613238;39;20918;-71
2022/09/14 12:34:35;;;;;;;4.63;2.40;;;14.50;99.90;;;;;;2612774;54;20416;-73
2022/09/14 12:46:56;;;;;;;6.43;2.13;;;14.40;99.90;;;;;;2613953;54;20383;-73
2022/09/14 13:09:30;;;;;;;4.33;3.47;;;14.40;99.90;;;;;;2613915;54;20909;-74
2022/09/14 13:15:22;;;;;;;3.00;2.10;;;14.50;99.90;;;;;;2613692;54;20928;-73
2022/09/14 13:27:56;;;;;;;3.60;2.00;;;14.30;99.90;;;;;;2614039;54;21014;-73
2022/09/14 13:33:50;;;;;;;2.97;1.80;;;14.40;99.90;;;;;;2611377;54;20372;-73
2022/09/14 13:39:40;;;;;;;4.90;3.10;;;14.60;99.90;;;;;;2612354;54;20380;-73
2022/09/14 13:45:28;;;;;;;9.37;3.70;;;14.60;99.90;;;;;;2611663;54;20218;-73
2022/09/14 13:51:20;;;;;;;4.03;2.53;;;14.70;99.90;;;;;;2611268;54;20424;-72
2022/09/14 13:57:19;;;;;;;5.75;2.75;;;14.70;99.90;;;;;;2613612;46;20552;-72
2022/09/14 14:09:43;;;;;;;3.85;2.55;;;15.00;99.90;;;;;;2615838;54;20138;-72
2022/09/14 14:15:40;;;;;;;4.13;2.40;;;15.10;99.90;;;;;;2615838;54;20150;-72
2022/09/14 14:21:31;;;;;;;2.37;2.17;;;14.90;99.90;;;;;;2615280;54;20415;-71
2022/09/14 14:27:35;;;;;;;4.80;3.87;;;14.90;99.90;;;;;;2613926;54;20363;-71
2022/09/14 14:33:23;;;;;;;11.33;2.37;;;14.80;99.90;;;;;;2614144;54;20422;-71
2022/09/14 14:39:11;;;;;;;9.70;4.00;;;14.90;99.90;;;;;;2614596;54;20480;-71
2022/09/14 14:44:59;;;;;;;7.28;2.50;;;14.90;99.90;;;;;;2613534;39;20545;-72
2022/09/14 14:50:47;;;;;;;4.97;3.13;;;15.00;99.90;;;;;;2614328;54;20391;-72
2022/09/14 14:56:36;;;;;;;4.53;3.17;;;15.10;99.90;;;;;;2613133;54;20387;-75
2022/09/14 15:02:24;;;;;;;6.07;3.53;;;15.10;99.90;;;;;;2612791;54;20903;-74
2022/09/14 15:08:13;;;;;;;4.67;4.10;;;15.60;99.90;;;;;;2614178;54;20146;-72
2022/09/14 15:14:01;;;;;;;3.90;3.43;;;15.50;99.90;;;;;;2614619;54;20403;-73
2022/09/14 15:19:49;;;;;;;5.20;4.57;;;15.60;99.90;;;;;;2613542;54;21378;-73
2022/09/14 15:25:37;;;;;;;5.50;2.93;;;15.60;99.90;;;;;;2613855;54;20130;-71
2022/09/14 15:31:25;;;;;;;4.30;3.30;;;15.30;99.90;;;;;;2611221;54;20130;-73
2022/09/14 15:37:13;;;;;;;5.57;4.30;;;15.20;99.90;;;;;;2613951;54;20120;-72
2022/09/14 15:43:01;;;;;;;5.77;5.17;;;15.30;99.90;;;;;;2614420;54;20182;-72
2022/09/14 15:48:48;;;;;;;5.13;4.63;;;15.30;99.90;;;;;;2613218;54;20134;-73
2022/09/14 15:54:37;;;;;;;9.48;4.97;;;15.20;99.90;;;;;;2611892;54;20161;-72
2022/09/14 15:57:28;;;;;;;6.43;5.53;;;15.20;99.90;;;;;;2613075;47;20675;-73
2022/09/14 15:59:54;;;;;;;7.07;6.17;;;15.10;99.90;;;;;;2611636;54;20424;-72
2022/09/14 16:05:42;;;;;;;13.67;12.17;;;15.20;99.90;;;;;;2612009;54;20395;-73
2022/09/14 16:11:32;;;;;;;15.27;13.47;;;15.10;99.90;;;;;;2612335;54;20158;-72
2022/09/14 16:17:20;;;;;;;20.52;14.70;;;14.90;99.90;;;;;;2613411;54;20472;-72
2022/09/14 16:23:07;;;;;;;19.43;16.40;;;15.00;99.90;;;;;;2615305;54;20135;-72
2022/09/14 16:28:55;;;;;;;20.80;15.80;;;15.00;99.90;;;;;;2615798;54;20142;-72
2022/09/14 16:34:43;;;;;;;23.10;15.03;;;14.90;99.90;;;;;;2614820;54;20406;-72
2022/09/14 16:40:32;;;;;;;22.10;15.67;;;14.90;99.90;;;;;;2615817;54;20139;-72
2022/09/14 16:46:20;;;;;;;16.40;13.70;;;14.80;99.90;;;;;;2615693;54;20407;-72
2022/09/14 16:52:09;;;;;;;16.73;14.73;;;14.90;99.90;;;;;;2616293;31;20599;-71
2022/09/14 17:02:02;;;;;;;15.60;11.07;;;14.90;99.90;;;;;;2615353;54;20161;-72
2022/09/14 17:07:50;;;;;;;14.47;11.60;;;14.90;99.90;;;;;;2615543;39;20765;-72
2022/09/14 17:13:39;;;;;;;10.53;9.43;;;14.80;99.90;;;;;;2615528;54;20118;-72
2022/09/14 17:19:28;;;;;;;13.43;7.80;;;14.70;99.90;;;;;;2615136;54;20395;-72
2022/09/14 17:25:15;;;;;;;12.43;8.60;;;14.60;99.90;;;;;;2615559;54;20484;-73
2022/09/14 17:31:06;;;;;;;9.90;8.10;;;14.60;99.90;;;;;;2614537;54;20138;-76
2022/09/14 17:36:54;;;;;;;9.43;7.50;;;14.50;99.90;;;;;;2611505;54;20522;-73
2022/09/14 17:39:57;;;;;;;8.60;7.27;;;14.50;99.90;;;;;;2611251;47;20440;-75
2022/09/14 17:42:22;;;;;;;10.20;8.17;;;14.50;99.90;;;;;;2611051;54;20907;-72
2022/09/14 17:48:10;;;;;;;11.00;7.87;;;14.40;99.90;;;;;;2611037;39;20486;-73
2022/09/14 17:54:00;;;;;;;14.02;8.30;;;14.40;99.90;;;;;;2612099;54;20134;-74
2022/09/14 17:59:47;;;;;;;9.00;7.30;;;14.40;99.90;;;;;;2610063;54;20438;-72
2022/09/14 18:05:35;;;;;;;12.30;8.60;;;14.20;99.90;;;;;;2610619;54;20254;-74
2022/09/14 18:11:23;;;;;;;8.83;6.90;;;14.10;99.90;;;;;;2612617;54;20395;-73
2022/09/14 18:17:11;;;;;;;9.40;7.18;;;14.10;99.90;;;;;;2613560;54;20418;-73
2022/09/14 18:22:59;;;;;;;7.72;6.63;;;14.00;99.90;;;;;;2610483;54;20149;-74
2022/09/14 18:28:49;;;;;;;12.20;7.70;;;13.90;99.90;;;;;;2609322;54;20135;-73
2022/09/14 18:34:37;;;;;;;11.87;6.33;;;13.80;99.90;;;;;;2614689;54;20131;-74
2022/09/14 18:40:25;;;;;;;9.07;6.78;;;13.70;99.90;;;;;;2614739;54;20135;-73
2022/09/14 18:46:14;;;;;;;9.25;6.45;;;13.70;99.90;;;;;;2613633;54;20738;-72
2022/09/14 18:52:02;;;;;;;9.57;6.87;;;13.50;99.90;;;;;;2615033;54;20383;-73
2022/09/14 19:02:05;;;;;;;10.55;8.13;;;13.50;99.90;;;;;;2612714;54;20551;-73
2022/09/14 19:07:53;;;;;;;11.50;8.77;;;13.40;99.90;;;;;;2613014;54;21668;-73
2022/09/14 19:13:41;;;;;;;9.50;8.03;;;13.50;99.90;;;;;;2613078;54;20173;-72
2022/09/14 19:19:29;;;;;;;10.02;7.57;;;13.40;99.90;;;;;;2613782;54;20118;-74
2022/09/14 19:25:18;;;;;;;17.77;12.90;;;13.40;99.90;;;;;;2612521;54;20643;-73
2022/09/14 19:31:08;;;;;;;13.60;8.60;;;13.40;99.90;;;;;;2614002;54;20394;-74
2022/09/14 19:36:56;;;;;;;14.97;8.30;;;13.40;99.90;;;;;;2612935;54;20397;-74
2022/09/14 19:42:43;;;;;;;11.90;8.73;;;13.40;99.90;;;;;;2613261;54;20130;-74
2022/09/14 19:48:32;;;;;;;13.60;9.57;;;13.40;99.90;;;;;;2614262;54;20154;-72
2022/09/14 19:54:20;;;;;;;17.40;9.80;;;13.20;99.90;;;;;;2612443;54;20154;-72
2022/09/14 19:57:33;;;;;;;17.67;9.60;;;13.30;99.90;;;;;;2615363;39;20839;-74
2022/09/14 20:00:01;;;;;;;16.58;9.60;;;13.40;99.90;;;;;;2614040;39;20861;-72
2022/09/14 20:12:22;;;;;;;13.70;10.45;;;13.30;99.90;;;;;;2614566;54;20366;-72
2022/09/14 20:18:10;;;;;;;19.43;11.93;;;13.20;99.90;;;;;;2613434;54;20475;-73
2022/09/14 20:23:59;;;;;;;12.57;10.17;;;13.10;99.90;;;;;;2613568;54;20134;-73
2022/09/14 20:29:47;;;;;;;21.50;13.00;;;13.00;99.90;;;;;;2612921;54;20458;-73
2022/09/14 20:35:35;;;;;;;17.90;10.20;;;13.00;99.90;;;;;;2615413;46;20145;-75
2022/09/14 20:41:26;;;;;;;14.40;9.80;;;12.90;99.90;;;;;;2614321;39;20548;-73
2022/09/14 20:47:14;;;;;;;13.33;10.13;;;12.70;99.90;;;;;;2612266;54;20964;-72
2022/09/14 20:53:05;;;;;;;19.43;11.20;;;12.50;99.90;;;;;;2615436;54;20239;-73
2022/09/14 21:02:14;;;;;;;19.07;10.87;;;12.50;99.90;;;;;;2614714;54;20419;-73
2022/09/14 21:08:02;;;;;;;17.27;10.30;;;12.50;99.90;;;;;;2610975;54;20655;-74
2022/09/14 21:13:52;;;;;;;17.00;10.75;;;12.40;99.90;;;;;;2613310;54;20424;-74
2022/09/14 21:19:40;;;;;;;24.85;10.57;;;12.40;99.90;;;;;;2611328;54;20374;-73
2022/09/14 21:25:27;;;;;;;19.00;12.17;;;12.40;99.90;;;;;;2610927;54;20246;-73
2022/09/14 21:31:19;;;;;;;16.87;11.57;;;12.30;99.90;;;;;;2609848;54;20135;-73
2022/09/14 21:37:07;;;;;;;17.77;10.80;;;12.00;99.90;;;;;;2614344;54;20379;-73
2022/09/14 21:42:55;;;;;;;21.30;13.40;;;12.00;99.90;;;;;;2613816;54;20434;-74
2022/09/14 21:48:43;;;;;;;15.60;12.40;;;12.30;99.90;;;;;;2614567;54;20391;-73
2022/09/14 21:54:31;;;;;;;21.57;13.40;;;12.30;99.90;;;;;;2614619;54;20414;-72
2022/09/14 21:57:47;;;;;;;24.50;13.30;;;12.20;99.90;;;;;;2614008;46;20431;-73
2022/09/14 22:00:13;;;;;;;20.43;13.07;;;12.20;99.90;;;;;;2612125;54;20147;-74
2022/09/14 22:06:06;;;;;;;21.33;13.75;;;12.30;99.90;;;;;;2612575;54;20138;-73
2022/09/14 22:11:55;;;;;;;19.52;13.15;;;12.40;99.90;;;;;;2613614;54;20150;-73
2022/09/14 22:17:43;;;;;;;19.50;14.30;;;12.50;99.90;;;;;;2613858;54;20426;-74
2022/09/14 22:23:32;;;;;;;21.20;15.73;;;12.70;99.90;;;;;;2613456;54;20138;-72
2022/09/14 22:29:20;;;;;;;21.07;15.30;;;12.80;99.90;;;;;;2615381;31;20970;-73
2022/09/14 22:35:08;;;;;;;31.63;16.87;;;12.90;99.90;;;;;;2614926;39;20212;-72
2022/09/14 22:40:57;;;;;;;32.70;18.30;;;13.00;99.90;;;;;;2613770;54;20663;-73
2022/09/14 22:46:45;;;;;;;37.77;19.67;;;12.90;99.90;;;;;;2615255;54;20405;-72
2022/09/14 22:52:33;;;;;;;29.60;18.60;;;12.90;99.90;;;;;;2613689;54;20149;-75
2022/09/14 23:08:43;;;;;;;39.90;23.90;;;13.10;99.90;;;;;;2613442;54;20556;-72
2022/09/14 23:14:31;;;;;;;38.97;21.00;;;13.00;99.90;;;;;;2611856;39;21031;-73
2022/09/14 23:20:18;;;;;;;43.30;23.17;;;12.90;99.90;;;;;;2613379;54;20139;-73
2022/09/14 23:29:30;;;;;;;43.77;23.30;;;12.90;99.90;;;;;;2612591;54;20407;-73
2022/09/14 23:35:17;;;;;;;40.60;24.80;;;12.90;99.90;;;;;;2612131;39;20937;-74
2022/09/14 23:41:05;;;;;;;53.30;24.33;;;13.00;99.90;;;;;;2614909;54;20134;-73
2022/09/14 23:46:52;;;;;;;54.27;25.40;;;13.10;99.90;;;;;;2613857;54;20706;-74
2022/09/14 23:52:40;;;;;;;41.38;22.80;;;13.10;99.90;;;;;;2614952;46;20141;-73
